Time;durP1;ratioP1;P1;durP2;ratioP2;P2;SDS_P1;SDS_P2;PMS_P1;PMS_P2;Temp;Humidity;BMP_temperature;BMP_pressure;BME280_temperature;BME280_humidity;BME280_pressure;Samples;Min_cycle;Max_cycle;Signal;HPM_P1;HPM_P2
2023/01/16 00:01:53;;;;;;;126.95;51.72;;;;;;;;;;6193223;23;20011;-84
2023/01/16 00:04:18;;;;;;;125.72;52.47;;;;;;;;;;6193219;23;20015;-84
2023/01/16 00:06:44;;;;;;;125.63;49.33;;;;;;;;;;6244891;23;20076;-83
2023/01/16 00:09:09;;;;;;;125.93;49.53;;;;;;;;;;6217859;23;20039;-83
2023/01/16 00:11:35;;;;;;;130.18;49.10;;;;;;;;;;6218452;23;20047;-83
2023/01/16 00:14:00;;;;;;;125.93;50.65;;;;;;;;;;6219540;23;20350;-84
2023/01/16 00:16:26;;;;;;;134.93;51.40;;;;;;;;;;6194510;23;20007;-84
2023/01/16 00:18:52;;;;;;;123.60;50.00;;;;;;;;;;6220384;23;19996;-84
2023/01/16 00:21:19;;;;;;;130.02;51.47;;;;;;;;;;6205519;23;20011;-83
2023/01/16 00:23:45;;;;;;;132.50;52.10;;;;;;;;;;6235404;23;20004;-83
2023/01/16 00:26:11;;;;;;;134.25;56.75;;;;;;;;;;6233234;23;20008;-84
2023/01/16 00:28:37;;;;;;;137.05;56.78;;;;;;;;;;6221117;23;20083;-84
2023/01/16 00:31:04;;;;;;;145.90;55.72;;;;;;;;;;6200943;23;20004;-84
2023/01/16 00:33:30;;;;;;;131.07;56.17;;;;;;;;;;6197603;23;20109;-84
2023/01/16 00:35:55;;;;;;;128.32;53.63;;;;;;;;;;6218421;23;20062;-83
2023/01/16 00:38:21;;;;;;;134.85;56.90;;;;;;;;;;6192873;23;20374;-84
2023/01/16 00:40:46;;;;;;;129.45;53.97;;;;;;;;;;6217723;23;20373;-83
2023/01/16 00:43:12;;;;;;;127.30;53.22;;;;;;;;;;6245298;23;20023;-83
2023/01/16 00:45:39;;;;;;;132.10;54.38;;;;;;;;;;6195307;23;20007;-84
2023/01/16 00:48:05;;;;;;;137.82;54.72;;;;;;;;;;6262932;23;20004;-84
2023/01/16 00:50:32;;;;;;;136.15;56.53;;;;;;;;;;6214285;23;20468;-83
2023/01/16 00:52:57;;;;;;;149.48;60.20;;;;;;;;;;6248681;23;20008;-84
2023/01/16 00:55:23;;;;;;;152.95;61.92;;;;;;;;;;6245129;23;20031;-83
2023/01/16 00:57:48;;;;;;;139.73;57.80;;;;;;;;;;6218208;23;20038;-83
2023/01/16 01:00:14;;;;;;;148.70;57.47;;;;;;;;;;6244438;23;20011;-83
2023/01/16 01:02:39;;;;;;;146.20;57.65;;;;;;;;;;6217385;23;20057;-84
2023/01/16 01:05:06;;;;;;;151.02;57.42;;;;;;;;;;6244477;23;20007;-84
2023/01/16 01:07:32;;;;;;;140.75;53.72;;;;;;;;;;6217330;23;20354;-84
2023/01/16 01:09:57;;;;;;;136.02;51.97;;;;;;;;;;6217643;23;20030;-83
2023/01/16 01:12:23;;;;;;;134.85;53.70;;;;;;;;;;6193558;23;20095;-83
2023/01/16 01:14:48;;;;;;;146.10;54.53;;;;;;;;;;6193011;23;20390;-83
2023/01/16 01:17:14;;;;;;;212.75;81.07;;;;;;;;;;6192677;23;20008;-84
2023/01/16 01:19:39;;;;;;;186.85;71.15;;;;;;;;;;6217996;23;20431;-83
2023/01/16 01:22:05;;;;;;;162.70;61.67;;;;;;;;;;6193025;23;20010;-84
2023/01/16 01:24:30;;;;;;;168.35;67.32;;;;;;;;;;6167730;23;20022;-83
2023/01/16 01:26:56;;;;;;;164.48;63.28;;;;;;;;;;6220193;23;20008;-83
2023/01/16 01:29:21;;;;;;;161.13;59.78;;;;;;;;;;6220051;23;20423;-84
2023/01/16 01:31:47;;;;;;;158.20;61.95;;;;;;;;;;6249257;23;20068;-83
2023/01/16 01:34:12;;;;;;;159.20;57.33;;;;;;;;;;6220404;23;20004;-83
2023/01/16 01:36:38;;;;;;;152.60;61.90;;;;;;;;;;6245055;23;20004;-83
2023/01/16 01:39:03;;;;;;;146.63;58.13;;;;;;;;;;6244426;23;20000;-84
2023/01/16 01:41:28;;;;;;;153.88;61.17;;;;;;;;;;6168096;23;20089;-84
2023/01/16 01:43:54;;;;;;;139.90;54.97;;;;;;;;;;6244436;23;20028;-84
2023/01/16 01:46:45;;;;;;;141.15;52.47;;;;;;;;;;6217387;23;20062;-84
2023/01/16 01:49:14;;;;;;;;;;;;;;;;;;6242236;23;20008;-85
2023/01/16 01:51:41;;;;;;;125.60;48.22;;;;;;;;;;6217241;23;19903;-84
2023/01/16 01:54:16;;;;;;;121.78;44.40;;;;;;;;;;6192611;23;20138;-84
2023/01/16 01:56:42;;;;;;;123.05;45.45;;;;;;;;;;6192381;23;20419;-84
2023/01/16 01:59:20;;;;;;;123.38;49.97;;;;;;;;;;6192037;23;20012;-84
2023/01/16 02:01:46;;;;;;;157.90;64.95;;;;;;;;;;6244352;23;20455;-84
2023/01/16 02:04:19;;;;;;;128.18;50.10;;;;;;;;;;6217615;23;20007;-84
2023/01/16 02:06:47;;;;;;;110.32;45.78;;;;;;;;;;6192099;23;20428;-82
2023/01/16 02:09:13;;;;;;;113.57;43.38;;;;;;;;;;6192231;23;20359;-83
2023/01/16 02:11:50;;;;;;;100.88;37.00;;;;;;;;;;6191945;23;20000;-82
2023/01/16 02:14:16;;;;;;;92.30;36.60;;;;;;;;;;6244902;23;20394;-83
2023/01/16 02:19:47;;;;;;;95.97;39.45;;;;;;;;;;6222983;23;20505;-83
2023/01/16 02:22:30;;;;;;;100.05;37.92;;;;;;;;;;6197446;23;20019;-83
2023/01/16 02:25:06;;;;;;;90.15;34.45;;;;;;;;;;6218793;23;20000;-83
2023/01/16 02:27:31;;;;;;;84.03;35.10;;;;;;;;;;6220589;23;20420;-83
2023/01/16 02:30:16;;;;;;;91.95;35.42;;;;;;;;;;6246051;23;20071;-83
2023/01/16 02:32:51;;;;;;;79.00;32.67;;;;;;;;;;6245924;23;20004;-83
2023/01/16 02:35:44;;;;;;;89.30;33.72;;;;;;;;;;6193787;23;20104;-83
2023/01/16 02:38:30;;;;;;;83.13;32.45;;;;;;;;;;6203936;23;20408;-83
2023/01/16 02:41:10;;;;;;;95.22;34.92;;;;;;;;;;6192663;23;20083;-83
2023/01/16 02:43:59;;;;;;;;;;;;;;;;;;6189194;23;20036;-83
2023/01/16 02:46:32;;;;;;;85.93;31.88;;;;;;;;;;6172335;23;19908;-83
2023/01/16 02:49:21;;;;;;;93.45;34.28;;;;;;;;;;6165430;23;20004;-83
2023/01/16 02:51:52;;;;;;;92.93;34.80;;;;;;;;;;6185428;23;20059;-83
2023/01/16 02:54:32;;;;;;;89.47;34.85;;;;;;;;;;6215276;23;20083;-83
2023/01/16 02:57:07;;;;;;;87.10;33.13;;;;;;;;;;6165435;23;20009;-83
2023/01/16 02:59:32;;;;;;;89.07;33.65;;;;;;;;;;6164732;23;20421;-83
2023/01/16 03:01:58;;;;;;;82.15;32.47;;;;;;;;;;6188565;23;20012;-83
2023/01/16 03:04:36;;;;;;;83.10;33.67;;;;;;;;;;6163220;23;20011;-84
2023/01/16 03:07:17;;;;;;;85.32;32.53;;;;;;;;;;6215054;23;20459;-83
2023/01/16 03:10:09;;;;;;;89.93;32.45;;;;;;;;;;6164669;23;20000;-83
2023/01/16 03:12:59;;;;;;;87.15;33.03;;;;;;;;;;6167308;23;20008;-83
2023/01/16 03:15:29;;;;;;;80.13;31.83;;;;;;;;;;6188669;23;20013;-83
2023/01/16 03:18:06;;;;;;;93.00;37.83;;;;;;;;;;6188705;23;20040;-83
2023/01/16 03:20:43;;;;;;;90.72;35.65;;;;;;;;;;6214392;23;20083;-83
2023/01/16 03:23:30;;;;;;;88.30;34.40;;;;;;;;;;6188431;23;20055;-83
2023/01/16 03:25:58;;;;;;;88.57;35.78;;;;;;;;;;6191094;23;20083;-83
2023/01/16 03:28:33;;;;;;;89.68;35.72;;;;;;;;;;6163618;23;20007;-82
2023/01/16 03:31:15;;;;;;;83.70;34.83;;;;;;;;;;6215067;23;20016;-83
2023/01/16 03:34:21;;;;;;;87.30;34.35;;;;;;;;;;6188112;23;20112;-83
2023/01/16 03:36:54;;;;;;;83.05;36.33;;;;;;;;;;6192421;23;20008;-83
2023/01/16 03:39:22;;;;;;;92.85;38.17;;;;;;;;;;6185695;23;20091;-83
2023/01/16 03:41:47;;;;;;;89.28;36.22;;;;;;;;;;6218717;23;20347;-84
2023/01/16 03:44:25;;;;;;;89.18;39.05;;;;;;;;;;6218225;23;20000;-84
2023/01/16 03:46:51;;;;;;;90.28;37.92;;;;;;;;;;6243880;23;20439;-83
2023/01/16 03:49:21;;;;;;;84.18;35.45;;;;;;;;;;6220577;23;20006;-83
2023/01/16 03:51:52;;;;;;;81.10;34.20;;;;;;;;;;6243956;23;20062;-83
2023/01/16 03:54:41;;;;;;;85.38;34.92;;;;;;;;;;6243225;23;20517;-83
2023/01/16 03:57:16;;;;;;;84.20;35.28;;;;;;;;;;6188876;22;20074;-83
2023/01/16 03:59:43;;;;;;;85.70;37.10;;;;;;;;;;6222059;23;20007;-84
2023/01/16 04:02:27;;;;;;;89.40;37.45;;;;;;;;;;6195192;23;20009;-83
2023/01/16 04:05:00;;;;;;;79.05;34.78;;;;;;;;;;6193816;23;21069;-84
2023/01/16 04:07:29;;;;;;;85.47;35.58;;;;;;;;;;6219157;23;20094;-83
2023/01/16 04:10:02;;;;;;;78.32;33.05;;;;;;;;;;6245036;22;20008;-83
2023/01/16 04:12:40;;;;;;;81.93;35.45;;;;;;;;;;6243207;23;19996;-83
2023/01/16 04:15:07;;;;;;;72.05;33.45;;;;;;;;;;6193524;23;20032;-84
2023/01/16 04:17:34;;;;;;;79.43;33.83;;;;;;;;;;6217657;23;20035;-84
2023/01/16 04:19:59;;;;;;;81.18;32.92;;;;;;;;;;6218256;23;20043;-83
2023/01/16 04:22:28;;;;;;;77.50;32.30;;;;;;;;;;6244889;22;20411;-84
2023/01/16 04:24:55;;;;;;;74.95;31.42;;;;;;;;;;6217924;23;20412;-83
2023/01/16 04:27:21;;;;;;;71.00;32.03;;;;;;;;;;6243323;23;20427;-83
2023/01/16 04:29:46;;;;;;;73.35;31.88;;;;;;;;;;6244584;22;20032;-83
2023/01/16 04:32:12;;;;;;;73.72;32.42;;;;;;;;;;6217929;23;20007;-84
2023/01/16 04:34:37;;;;;;;77.05;33.33;;;;;;;;;;6244911;22;20000;-85
2023/01/16 04:37:03;;;;;;;74.38;32.38;;;;;;;;;;6243253;23;20007;-85
2023/01/16 04:39:28;;;;;;;73.47;31.35;;;;;;;;;;6243142;23;20083;-85
2023/01/16 04:41:53;;;;;;;76.43;32.63;;;;;;;;;;6244754;23;20000;-84
2023/01/16 04:44:19;;;;;;;74.63;33.05;;;;;;;;;;6243357;23;19996;-84
2023/01/16 04:46:44;;;;;;;76.70;33.83;;;;;;;;;;6242607;23;20091;-84
2023/01/16 04:49:10;;;;;;;82.93;35.70;;;;;;;;;;6243285;23;20004;-84
2023/01/16 04:51:36;;;;;;;81.80;35.33;;;;;;;;;;6244684;22;20062;-84
2023/01/16 04:54:02;;;;;;;91.10;37.08;;;;;;;;;;6242880;23;20003;-84
2023/01/16 04:56:27;;;;;;;85.88;36.97;;;;;;;;;;6239794;23;20004;-85
2023/01/16 04:58:53;;;;;;;79.50;34.80;;;;;;;;;;6244383;23;20008;-84
2023/01/16 05:01:18;;;;;;;80.63;33.65;;;;;;;;;;6245037;22;20415;-84
2023/01/16 05:03:44;;;;;;;75.88;33.67;;;;;;;;;;6243189;23;19996;-84
2023/01/16 05:06:09;;;;;;;83.78;34.92;;;;;;;;;;6192558;23;20008;-84
2023/01/16 05:08:35;;;;;;;82.57;35.22;;;;;;;;;;6244907;22;20000;-84
2023/01/16 05:11:01;;;;;;;81.03;34.80;;;;;;;;;;6217336;23;20496;-83
2023/01/16 05:13:27;;;;;;;86.70;35.83;;;;;;;;;;6243189;23;20079;-84
2023/01/16 05:15:53;;;;;;;94.90;38.08;;;;;;;;;;6217199;23;20359;-83
2023/01/16 05:18:18;;;;;;;82.10;36.03;;;;;;;;;;6243258;23;20067;-83
2023/01/16 05:20:44;;;;;;;82.72;36.08;;;;;;;;;;6244844;22;20343;-83
2023/01/16 05:23:10;;;;;;;95.32;37.90;;;;;;;;;;6244099;23;20071;-83
2023/01/16 05:25:36;;;;;;;86.25;36.25;;;;;;;;;;6244048;23;20008;-84
2023/01/16 05:28:02;;;;;;;89.65;36.80;;;;;;;;;;6206398;23;20060;-83
2023/01/16 05:30:27;;;;;;;87.97;36.60;;;;;;;;;;6269101;23;20001;-82
2023/01/16 05:32:53;;;;;;;89.65;35.92;;;;;;;;;;6270290;23;19992;-83
2023/01/16 05:35:19;;;;;;;91.60;37.40;;;;;;;;;;6266920;23;20449;-82
2023/01/16 05:37:45;;;;;;;82.60;34.50;;;;;;;;;;6239454;23;19992;-81
2023/01/16 05:40:15;;;;;;;82.18;35.25;;;;;;;;;;6238460;23;20044;-83
2023/01/16 05:42:44;;;;;;;84.57;34.05;;;;;;;;;;6251133;22;20004;-83
2023/01/16 05:45:10;;;;;;;79.65;32.35;;;;;;;;;;6244631;22;20000;-84
2023/01/16 05:47:35;;;;;;;74.85;30.08;;;;;;;;;;6216066;23;20102;-84
2023/01/16 05:50:01;;;;;;;69.07;28.75;;;;;;;;;;6242738;22;20063;-82
2023/01/16 05:52:29;;;;;;;74.53;30.05;;;;;;;;;;6218204;23;20004;-82
2023/01/16 05:54:55;;;;;;;66.57;27.63;;;;;;;;;;6251712;22;20000;-80
2023/01/16 05:57:22;;;;;;;71.57;29.40;;;;;;;;;;6246211;22;20040;-81
2023/01/16 05:59:53;;;;;;;73.00;26.88;;;;;;;;;;6245572;22;20192;-81
2023/01/16 06:02:21;;;;;;;74.60;28.60;;;;;;;;;;6242224;23;20008;-83
2023/01/16 06:04:47;;;;;;;75.22;28.23;;;;;;;;;;6244350;23;20010;-81
2023/01/16 06:07:13;;;;;;;73.97;27.85;;;;;;;;;;6239437;23;20039;-85
2023/01/16 06:09:38;;;;;;;66.65;25.27;;;;;;;;;;6248475;23;20004;-88
2023/01/16 06:12:07;;;;;;;68.10;27.17;;;;;;;;;;6196325;23;20001;-86
2023/01/16 06:14:33;;;;;;;72.25;27.08;;;;;;;;;;6218312;23;20084;-84
2023/01/16 06:16:59;;;;;;;81.45;28.90;;;;;;;;;;6239291;23;20000;-84
2023/01/16 06:19:24;;;;;;;73.88;27.40;;;;;;;;;;6241904;23;20016;-85
2023/01/16 06:21:50;;;;;;;75.10;25.95;;;;;;;;;;6246708;22;20000;-85
2023/01/16 06:24:15;;;;;;;74.95;26.48;;;;;;;;;;6243911;23;20000;-84
2023/01/16 06:26:41;;;;;;;75.38;27.25;;;;;;;;;;6248507;23;20411;-84
2023/01/16 06:29:07;;;;;;;68.70;25.38;;;;;;;;;;6246237;22;20008;-87
2023/01/16 06:31:33;;;;;;;73.28;27.67;;;;;;;;;;6243281;23;20004;-84
2023/01/16 06:33:59;;;;;;;75.97;27.55;;;;;;;;;;6222968;23;20023;-87
2023/01/16 06:36:25;;;;;;;76.55;28.33;;;;;;;;;;6247954;23;20179;-86
2023/01/16 06:38:50;;;;;;;76.50;27.27;;;;;;;;;;6250257;23;20099;-85
2023/01/16 06:41:16;;;;;;;77.13;28.67;;;;;;;;;;6195441;23;20012;-87
2023/01/16 06:43:41;;;;;;;68.70;26.38;;;;;;;;;;6199555;23;20000;-85
2023/01/16 06:46:07;;;;;;;73.60;28.02;;;;;;;;;;6197234;23;20039;-84
2023/01/16 06:48:38;;;;;;;72.68;27.58;;;;;;;;;;6242126;23;20107;-86
2023/01/16 06:51:03;;;;;;;69.80;24.00;;;;;;;;;;6215742;23;20004;-85
2023/01/16 06:53:30;;;;;;;74.95;25.45;;;;;;;;;;6243267;23;20016;-82
2023/01/16 06:55:55;;;;;;;64.80;22.30;;;;;;;;;;6215108;23;20067;-84
2023/01/16 06:58:21;;;;;;;69.22;22.27;;;;;;;;;;6243588;23;20004;-84
2023/01/16 07:00:50;;;;;;;67.30;23.45;;;;;;;;;;6245497;23;20004;-83
2023/01/16 07:03:16;;;;;;;74.47;24.45;;;;;;;;;;6218304;23;20031;-85
2023/01/16 07:05:42;;;;;;;66.68;24.48;;;;;;;;;;6217615;23;20015;-84
2023/01/16 07:08:07;;;;;;;70.53;24.48;;;;;;;;;;6193562;23;20008;-84
2023/01/16 07:10:35;;;;;;;70.55;23.65;;;;;;;;;;6218673;23;20004;-86
2023/01/16 07:13:01;;;;;;;67.43;23.02;;;;;;;;;;6244715;23;20000;-83
2023/01/16 07:23:46;;;;;;;67.90;25.15;;;;;;;;;;6205742;23;20092;-83
2023/01/16 07:26:12;;;;;;;77.78;26.10;;;;;;;;;;6195288;23;20075;-84
2023/01/16 07:28:37;;;;;;;75.43;25.23;;;;;;;;;;6219783;23;20000;-82
2023/01/16 07:31:04;;;;;;;75.07;26.05;;;;;;;;;;6219199;23;20008;-84
2023/01/16 07:33:30;;;;;;;87.68;29.60;;;;;;;;;;6197525;23;20004;-86
2023/01/16 07:35:55;;;;;;;81.22;29.33;;;;;;;;;;6246194;23;20142;-83
2023/01/16 07:38:21;;;;;;;86.65;28.63;;;;;;;;;;6247366;23;20007;-87
2023/01/16 07:40:53;;;;;;;94.32;32.17;;;;;;;;;;6226252;23;20004;-88
2023/01/16 07:43:18;;;;;;;81.68;27.55;;;;;;;;;;6196558;23;20457;-87
2023/01/16 07:45:51;;;;;;;92.20;30.25;;;;;;;;;;6222455;23;20031;-81
2023/01/16 07:48:22;;;;;;;87.65;33.95;;;;;;;;;;6197474;23;20607;-86
2023/01/16 07:50:58;;;;;;;102.88;35.25;;;;;;;;;;6195475;23;20475;-91
2023/01/16 07:53:25;;;;;;;80.95;27.95;;;;;;;;;;6159878;23;20123;-89
2023/01/16 07:55:56;;;;;;;86.47;30.58;;;;;;;;;;6217028;23;20008;-88
2023/01/16 07:58:21;;;;;;;;;;;;;;;;;;6244358;23;20011;-86
2023/01/16 08:00:47;;;;;;;77.63;26.35;;;;;;;;;;6217671;23;19990;-87
2023/01/16 08:03:13;;;;;;;79.13;29.42;;;;;;;;;;6242567;23;20008;-87
2023/01/16 08:05:39;;;;;;;88.10;31.23;;;;;;;;;;6243741;23;20007;-84
2023/01/16 08:08:04;;;;;;;82.22;28.73;;;;;;;;;;6191101;23;20082;-84
2023/01/16 08:10:33;;;;;;;80.78;27.73;;;;;;;;;;6215015;23;19996;-85
2023/01/16 08:12:58;;;;;;;69.45;24.40;;;;;;;;;;6242327;23;21115;-84
2023/01/16 08:15:24;;;;;;;70.57;24.23;;;;;;;;;;6242779;23;20000;-82
2023/01/16 08:17:52;;;;;;;57.90;21.15;;;;;;;;;;6240582;23;20012;-86
2023/01/16 08:20:17;;;;;;;73.78;25.77;;;;;;;;;;6242730;23;20053;-89
2023/01/16 08:22:46;;;;;;;76.50;26.13;;;;;;;;;;6245294;23;20075;-88
2023/01/16 08:25:12;;;;;;;81.07;28.85;;;;;;;;;;6252866;23;20003;-85
2023/01/16 08:27:37;;;;;;;72.93;26.25;;;;;;;;;;6227844;23;20095;-85
2023/01/16 08:30:04;;;;;;;84.40;30.27;;;;;;;;;;6245026;23;20071;-83
2023/01/16 08:32:29;;;;;;;77.82;26.70;;;;;;;;;;6217332;23;20008;-84
2023/01/16 08:34:55;;;;;;;75.45;27.58;;;;;;;;;;6241269;23;20293;-82
2023/01/16 08:37:21;;;;;;;74.35;26.05;;;;;;;;;;6240608;23;20008;-85
2023/01/16 08:39:46;;;;;;;62.88;21.75;;;;;;;;;;6239209;23;20012;-83
2023/01/16 08:53:08;;;;;;;72.65;26.15;;;;;;;;;;6221062;23;20351;-83
2023/01/16 08:55:34;;;;;;;64.13;22.90;;;;;;;;;;6214516;23;20000;-82
2023/01/16 08:57:59;;;;;;;65.68;25.02;;;;;;;;;;6186177;23;20008;-82
2023/01/16 09:00:26;;;;;;;62.40;23.15;;;;;;;;;;6212429;23;20058;-82
2023/01/16 09:02:52;;;;;;;67.03;23.40;;;;;;;;;;6239351;23;20011;-84
2023/01/16 09:05:18;;;;;;;58.85;22.05;;;;;;;;;;6188015;23;20187;-82
2023/01/16 09:07:44;;;;;;;62.58;23.60;;;;;;;;;;6236948;23;20000;-85
2023/01/16 09:10:13;;;;;;;52.63;21.15;;;;;;;;;;6241649;23;20000;-86
2023/01/16 09:15:23;;;;;;;48.67;19.45;;;;;;;;;;6223882;23;20458;-86
2023/01/16 09:17:48;;;;;;;59.28;21.92;;;;;;;;;;6218003;23;20000;-86
2023/01/16 09:20:14;;;;;;;49.83;18.55;;;;;;;;;;6192222;23;20434;-86
2023/01/16 09:22:40;;;;;;;47.80;20.58;;;;;;;;;;6218087;23;20004;-89
2023/01/16 09:25:06;;;;;;;49.13;19.05;;;;;;;;;;6223391;23;20326;-89
2023/01/16 09:27:31;;;;;;;49.30;19.08;;;;;;;;;;6250258;23;19997;-88
2023/01/16 09:29:58;;;;;;;49.78;19.02;;;;;;;;;;6246028;23;20004;-86
2023/01/16 09:32:24;;;;;;;46.20;17.45;;;;;;;;;;6219696;23;20027;-85
2023/01/16 09:34:50;;;;;;;48.70;18.90;;;;;;;;;;6195520;23;20071;-86
2023/01/16 09:37:16;;;;;;;43.10;17.55;;;;;;;;;;6167309;23;20119;-84
2023/01/16 09:39:42;;;;;;;44.20;18.30;;;;;;;;;;6228212;23;20008;-87
2023/01/16 09:44:55;;;;;;;46.08;17.52;;;;;;;;;;6241265;23;20016;-84
2023/01/16 09:47:22;;;;;;;44.30;17.13;;;;;;;;;;6240667;23;20004;-82
2023/01/16 09:49:55;;;;;;;40.95;15.93;;;;;;;;;;6240758;22;20032;-83
2023/01/16 10:00:59;;;;;;;43.17;17.15;;;;;;;;;;6239335;23;20097;-83
2023/01/16 10:03:26;;;;;;;40.85;16.20;;;;;;;;;;6243109;22;20008;-87
2023/01/16 10:06:20;;;;;;;42.95;18.83;;;;;;;;;;6199755;23;20335;-85
2023/01/16 10:08:58;;;;;;;50.00;19.52;;;;;;;;;;6212372;23;20090;-84
2023/01/16 10:12:08;;;;;;;43.88;18.17;;;;;;;;;;6239744;23;20082;-86
2023/01/16 10:14:36;;;;;;;;;;;;;;;;;;6236176;22;20079;-85
2023/01/16 10:17:08;;;;;;;56.25;20.95;;;;;;;;;;6242175;22;20315;-84
2023/01/16 10:20:09;;;;;;;54.33;20.55;;;;;;;;;;6238520;22;20428;-82
2023/01/16 10:22:48;;;;;;;65.50;22.42;;;;;;;;;;6217500;22;20011;-83
2023/01/16 10:25:31;;;;;;;72.03;23.83;;;;;;;;;;6234969;23;20085;-88
2023/01/16 10:28:25;;;;;;;49.75;20.05;;;;;;;;;;6241740;23;20427;-87
2023/01/16 10:30:57;;;;;;;49.28;19.77;;;;;;;;;;6244737;22;20004;-87
2023/01/16 10:33:33;;;;;;;48.03;19.55;;;;;;;;;;6220281;23;20000;-85
2023/01/16 10:36:01;;;;;;;50.00;20.10;;;;;;;;;;6243405;23;20065;-83
2023/01/16 10:38:45;;;;;;;42.70;16.15;;;;;;;;;;6224185;23;20055;-87
2023/01/16 10:50:06;;;;;;;57.92;21.13;;;;;;;;;;6206463;23;20078;-83
2023/01/16 10:52:32;;;;;;;52.97;19.27;;;;;;;;;;6194664;23;20614;-83
2023/01/16 10:54:57;;;;;;;52.63;19.92;;;;;;;;;;6192314;23;20004;-82
2023/01/16 10:57:25;;;;;;;51.38;18.70;;;;;;;;;;6224648;23;20006;-87
2023/01/16 10:59:52;;;;;;;52.90;20.95;;;;;;;;;;6199849;23;20055;-90
2023/01/16 11:02:32;;;;;;;48.72;19.33;;;;;;;;;;6227334;23;20334;-85
2023/01/16 11:07:44;;;;;;;52.72;18.33;;;;;;;;;;6279712;22;20967;-89
2023/01/16 11:10:15;;;;;;;60.55;20.42;;;;;;;;;;6223450;22;20004;-88
2023/01/16 11:18:40;;;;;;;59.85;21.75;;;;;;;;;;6262002;22;20030;-90
2023/01/16 11:21:22;;;;;;;67.95;22.63;;;;;;;;;;6204541;22;20004;-87
2023/01/16 11:23:48;;;;;;;49.70;19.48;;;;;;;;;;6236953;22;20003;-86
2023/01/16 11:26:14;;;;;;;56.70;20.60;;;;;;;;;;6271836;22;20008;-87
2023/01/16 11:29:02;;;;;;;54.97;21.30;;;;;;;;;;6260293;22;20073;-90
2023/01/16 11:34:04;;;;;;;61.72;20.02;;;;;;;;;;6277162;22;20018;-81
2023/01/16 11:36:32;;;;;;;61.97;19.02;;;;;;;;;;6223455;22;20042;-86
2023/01/16 11:39:24;;;;;;;62.17;20.15;;;;;;;;;;6248773;22;20000;-84
2023/01/16 11:41:51;;;;;;;59.03;21.60;;;;;;;;;;6217233;22;20038;-82
2023/01/16 11:47:53;;;;;;;53.08;18.45;;;;;;;;;;6273320;22;20034;-88
2023/01/16 11:50:28;;;;;;;56.47;19.58;;;;;;;;;;6228211;22;20008;-88
2023/01/16 11:52:55;;;;;;;58.67;19.38;;;;;;;;;;6245823;22;20003;-84
2023/01/16 11:55:21;;;;;;;75.45;21.85;;;;;;;;;;6245921;22;20006;-84
2023/01/16 11:57:53;;;;;;;61.75;22.42;;;;;;;;;;6233754;22;20004;-84
2023/01/16 12:00:35;;;;;;;60.65;23.17;;;;;;;;;;6257716;22;20007;-82
2023/01/16 12:03:01;;;;;;;67.45;24.30;;;;;;;;;;6272838;22;20079;-84
2023/01/16 12:06:22;;;;;;;66.35;24.20;;;;;;;;;;6269465;22;20022;-83
2023/01/16 12:09:04;;;;;;;74.03;24.13;;;;;;;;;;6217535;22;20435;-83
2023/01/16 12:11:48;;;;;;;66.63;24.65;;;;;;;;;;6220825;22;20153;-87
2023/01/16 12:14:45;;;;;;;69.45;25.13;;;;;;;;;;6231159;22;20007;-88
2023/01/16 12:17:35;;;;;;;69.78;24.83;;;;;;;;;;6227330;22;20004;-82
2023/01/16 12:20:00;;;;;;;;;;;;;;;;;;6251511;22;20007;-82
2023/01/16 12:22:44;;;;;;;58.20;21.00;;;;;;;;;;6273962;22;19907;-85
2023/01/16 12:25:31;;;;;;;52.95;20.70;;;;;;;;;;6272107;22;20419;-86
2023/01/16 12:28:06;;;;;;;66.05;25.17;;;;;;;;;;6271972;22;19995;-87
2023/01/16 12:31:30;;;;;;;61.38;23.20;;;;;;;;;;6251235;22;20014;-84
2023/01/16 12:33:49;;;;;;;;;;;;;;;;;;6268978;22;20019;-87
2023/01/16 12:36:53;;;;;;;63.67;22.85;;;;;;;;;;6241280;22;19937;-86
2023/01/16 12:39:37;;;;;;;69.32;23.92;;;;;;;;;;6197753;22;20015;-86
2023/01/16 12:45:15;;;;;;;69.15;26.55;;;;;;;;;;6228607;22;20030;-85
2023/01/16 12:47:59;;;;;;;61.78;23.83;;;;;;;;;;6271164;22;20501;-87
2023/01/16 12:50:50;;;;;;;94.68;38.13;;;;;;;;;;6271312;22;20430;-86
2023/01/16 12:53:23;;;;;;;64.43;25.27;;;;;;;;;;6248619;22;20015;-83
2023/01/16 12:56:19;;;;;;;49.70;20.42;;;;;;;;;;6271304;22;20003;-85
2023/01/16 12:58:50;;;;;;;55.72;20.83;;;;;;;;;;6272949;22;20014;-86
2023/01/16 13:01:31;;;;;;;60.22;24.20;;;;;;;;;;6240896;22;20011;-87
2023/01/16 13:04:06;;;;;;;58.38;23.90;;;;;;;;;;6225515;22;20505;-86
2023/01/16 13:09:49;;;;;;;50.75;20.88;;;;;;;;;;6231037;22;20007;-86
2023/01/16 13:15:09;;;;;;;47.88;18.90;;;;;;;;;;6276197;22;20015;-86
2023/01/16 13:17:44;;;;;;;58.25;21.55;;;;;;;;;;6224323;22;20078;-86
2023/01/16 13:20:11;;;;;;;54.15;23.17;;;;;;;;;;6224575;22;20016;-86
2023/01/16 13:22:55;;;;;;;56.70;22.52;;;;;;;;;;6199764;22;20419;-86
2023/01/16 13:25:26;;;;;;;53.83;21.83;;;;;;;;;;6224453;22;20003;-85
2023/01/16 13:28:45;;;;;;;52.78;21.23;;;;;;;;;;6257451;22;20000;-86
2023/01/16 13:32:07;;;;;;;51.45;20.67;;;;;;;;;;6157242;22;20075;-86
2023/01/16 13:38:44;;;;;;;70.28;26.27;;;;;;;;;;6075560;23;20146;-86
2023/01/16 13:41:37;;;;;;;66.78;27.67;;;;;;;;;;6070969;23;20490;-86
2023/01/16 13:47:09;;;;;;;64.90;28.15;;;;;;;;;;6240895;22;20019;-85
2023/01/16 13:49:36;;;;;;;61.25;25.13;;;;;;;;;;6223700;22;20446;-86
2023/01/16 13:52:03;;;;;;;71.03;29.50;;;;;;;;;;6223652;22;20078;-86
2023/01/16 13:54:47;;;;;;;71.82;30.27;;;;;;;;;;6221722;22;20057;-85
2023/01/16 13:57:23;;;;;;;84.65;36.38;;;;;;;;;;6248103;22;20019;-85
2023/01/16 13:59:53;;;;;;;62.60;25.88;;;;;;;;;;6225361;22;20419;-85
2023/01/16 14:02:24;;;;;;;51.75;21.55;;;;;;;;;;6221929;22;20003;-85
2023/01/16 14:05:08;;;;;;;58.42;24.80;;;;;;;;;;6274942;22;20031;-85
2023/01/16 14:10:40;;;;;;;49.28;19.55;;;;;;;;;;6276141;22;20018;-85
2023/01/16 14:13:18;;;;;;;53.17;21.83;;;;;;;;;;6275020;22;20004;-85
2023/01/16 14:18:46;;;;;;;51.60;21.98;;;;;;;;;;6276609;22;20010;-85
2023/01/16 14:21:38;;;;;;;51.40;22.45;;;;;;;;;;6249981;22;20019;-85
2023/01/16 14:24:11;;;;;;;60.65;25.23;;;;;;;;;;6249430;22;20095;-86
2023/01/16 14:26:49;;;;;;;83.85;39.10;;;;;;;;;;6249782;22;20008;-85
2023/01/16 14:29:15;;;;;;;68.88;27.05;;;;;;;;;;6276618;22;19996;-85
2023/01/16 14:32:08;;;;;;;58.97;25.00;;;;;;;;;;6276897;22;20484;-85
2023/01/16 14:34:36;;;;;;;69.45;28.27;;;;;;;;;;6241021;22;20007;-85
2023/01/16 14:37:05;;;;;;;73.50;30.67;;;;;;;;;;6278860;22;20434;-85
2023/01/16 14:39:36;;;;;;;74.32;32.20;;;;;;;;;;6226518;22;20065;-84
2023/01/16 14:57:03;;;;;;;83.05;33.25;;;;;;;;;;6252849;22;20015;-85
2023/01/16 14:59:33;;;;;;;90.03;35.28;;;;;;;;;;6199392;22;20007;-85
2023/01/16 15:02:21;;;;;;;88.43;35.05;;;;;;;;;;6223955;22;20004;-85
2023/01/16 15:04:54;;;;;;;81.47;32.20;;;;;;;;;;6191691;22;20006;-85
2023/01/16 15:07:35;;;;;;;89.38;35.05;;;;;;;;;;6248869;22;20099;-85
2023/01/16 15:10:20;;;;;;;91.72;34.75;;;;;;;;;;6224738;22;20070;-85
2023/01/16 15:12:46;;;;;;;71.82;28.05;;;;;;;;;;6225880;22;20011;-85
2023/01/16 15:15:28;;;;;;;82.53;30.05;;;;;;;;;;6222599;22;20000;-85
2023/01/16 15:23:35;;;;;;;70.28;26.05;;;;;;;;;;6232030;22;20066;-85
2023/01/16 15:26:04;;;;;;;69.35;25.10;;;;;;;;;;6199703;22;20435;-85
2023/01/16 15:28:51;;;;;;;79.95;30.55;;;;;;;;;;6248972;22;20007;-84
2023/01/16 15:31:29;;;;;;;80.10;31.30;;;;;;;;;;6276882;22;20349;-84
2023/01/16 15:34:18;;;;;;;87.05;33.03;;;;;;;;;;6271468;22;20019;-84
2023/01/16 15:36:45;;;;;;;79.28;31.67;;;;;;;;;;6274597;22;20063;-84
2023/01/16 15:39:28;;;;;;;73.25;28.17;;;;;;;;;;6224081;22;20065;-83
2023/01/16 15:48:39;;;;;;;82.97;31.60;;;;;;;;;;6254321;22;20022;-84
2023/01/16 15:51:11;;;;;;;75.43;30.35;;;;;;;;;;6201017;22;20011;-85
2023/01/16 15:53:46;;;;;;;83.50;33.80;;;;;;;;;;6249417;22;20015;-85
2023/01/16 15:56:25;;;;;;;84.55;37.30;;;;;;;;;;6275623;22;20011;-85
2023/01/16 15:58:53;;;;;;;92.07;37.47;;;;;;;;;;6224611;22;20078;-85
2023/01/16 16:01:32;;;;;;;88.82;36.58;;;;;;;;;;6274077;22;20008;-85
2023/01/16 16:04:02;;;;;;;82.32;34.67;;;;;;;;;;6248621;22;20000;-85
2023/01/16 16:06:29;;;;;;;102.50;37.47;;;;;;;;;;6223048;22;20335;-86
2023/01/16 16:08:54;;;;;;;98.28;39.00;;;;;;;;;;6249641;22;20500;-85
2023/01/16 16:20:42;;;;;;;90.40;35.88;;;;;;;;;;6252886;22;20087;-85
2023/01/16 16:23:19;;;;;;;109.53;45.13;;;;;;;;;;6273541;22;20006;-85
2023/01/16 16:25:51;;;;;;;119.13;49.30;;;;;;;;;;6247927;22;20434;-85
2023/01/16 16:28:22;;;;;;;129.93;49.22;;;;;;;;;;6273376;22;20430;-85
2023/01/16 16:30:55;;;;;;;117.25;46.50;;;;;;;;;;6275803;22;20097;-85
2023/01/16 16:33:20;;;;;;;118.68;47.00;;;;;;;;;;6223682;22;20014;-85
2023/01/16 16:35:49;;;;;;;206.50;89.03;;;;;;;;;;6273169;22;20012;-85
2023/01/16 16:38:26;;;;;;;181.77;71.95;;;;;;;;;;6271246;22;20006;-84
2023/01/16 16:41:06;;;;;;;140.00;58.75;;;;;;;;;;6300262;22;20008;-84